createdAt,value
2022-08-30T00:00:27.024Z,23.90
2022-08-30T00:01:06.515Z,23.86
2022-08-30T00:01:38.741Z,23.87
2022-08-30T00:02:11.042Z,23.89
2022-08-30T00:02:43.753Z,23.92
2022-08-30T00:03:19.583Z,23.91
2022-08-30T00:03:53.059Z,23.90
2022-08-30T00:04:26.501Z,23.90
2022-08-30T00:05:01.790Z,23.90
2022-08-30T00:05:34.978Z,23.87
2022-08-30T00:06:08.601Z,23.89
2022-08-30T00:06:43.397Z,23.87
2022-08-30T00:07:15.905Z,23.85
2022-08-30T00:07:48.570Z,23.85
2022-08-30T00:08:23.875Z,23.86
2022-08-30T00:08:56.470Z,23.84
2022-08-30T00:09:28.710Z,23.85
2022-08-30T00:10:03.627Z,23.85
2022-08-30T00:10:36.063Z,23.85
2022-08-30T00:11:14.870Z,23.83
2022-08-30T00:11:50.280Z,23.79
2022-08-30T00:12:22.490Z,23.78
2022-08-30T00:12:55.212Z,23.76
2022-08-30T00:13:30.670Z,23.74
2022-08-30T00:14:02.904Z,23.75
2022-08-30T00:14:35.187Z,23.72
2022-08-30T00:15:10.626Z,23.72
2022-08-30T00:15:45.184Z,23.72
2022-08-30T00:16:18.384Z,23.70
2022-08-30T00:16:53.177Z,23.71
2022-08-30T00:17:25.399Z,23.70
2022-08-30T00:17:57.621Z,23.70
2022-08-30T00:18:32.437Z,23.70
2022-08-30T00:19:05.286Z,23.64
2022-08-30T00:19:38.276Z,23.60
2022-08-30T00:20:18.119Z,23.66
2022-08-30T00:20:51.276Z,23.59
2022-08-30T00:21:27.242Z,23.57
2022-08-30T00:21:59.559Z,23.58
2022-08-30T00:22:33.174Z,23.58
2022-08-30T00:23:09.201Z,23.60
2022-08-30T00:23:42.119Z,23.61
2022-08-30T00:24:14.371Z,23.66
2022-08-30T00:24:49.601Z,23.68
2022-08-30T00:25:23.437Z,23.68
2022-08-30T00:25:55.665Z,23.65
2022-08-30T00:26:33.014Z,23.64
2022-08-30T00:27:05.506Z,23.63
2022-08-30T00:27:37.669Z,23.64
2022-08-30T00:28:12.555Z,23.62
2022-08-30T00:28:44.776Z,23.56
2022-08-30T00:29:16.959Z,23.57
2022-08-30T00:29:51.649Z,23.56
2022-08-30T00:30:24.191Z,23.55
2022-08-30T00:30:56.456Z,23.55
2022-08-30T00:31:31.537Z,23.56
2022-08-30T00:32:04.206Z,23.52
2022-08-30T00:32:36.462Z,23.51
2022-08-30T00:33:11.292Z,23.52
2022-08-30T00:33:43.695Z,23.50
2022-08-30T00:34:16.865Z,23.53
2022-08-30T00:34:51.750Z,23.47
2022-08-30T00:35:25.233Z,23.51
2022-08-30T00:35:57.547Z,23.48
2022-08-30T00:36:32.310Z,23.48
2022-08-30T00:37:04.801Z,23.47
2022-08-30T00:37:37.185Z,23.46
2022-08-30T00:38:11.827Z,23.46
2022-08-30T00:38:46.675Z,23.45
2022-08-30T00:39:18.957Z,23.46
2022-08-30T00:39:51.452Z,23.45
2022-08-30T00:40:27.611Z,23.43
2022-08-30T00:40:59.996Z,23.43
2022-08-30T00:41:35.422Z,23.41
2022-08-30T00:42:13.097Z,23.41
2022-08-30T00:42:50.544Z,23.42
2022-08-30T00:43:27.734Z,23.40
2022-08-30T00:44:02.845Z,23.41
2022-08-30T00:44:35.527Z,23.40
2022-08-30T00:45:13.263Z,23.42
2022-08-30T00:45:45.695Z,23.41
2022-08-30T00:46:20.424Z,23.43
2022-08-30T00:46:52.709Z,23.41
2022-08-30T00:47:24.945Z,23.43
2022-08-30T00:48:00.374Z,23.44
2022-08-30T00:48:33.900Z,23.43
2022-08-30T00:49:12.157Z,23.42
2022-08-30T00:49:48.488Z,23.41
2022-08-30T00:50:23.563Z,23.39
2022-08-30T00:51:02.092Z,23.37
2022-08-30T00:51:35.009Z,23.36
2022-08-30T00:52:07.978Z,23.38
2022-08-30T00:52:45.522Z,23.39
2022-08-30T00:53:24.985Z,23.41
2022-08-30T00:54:00.072Z,23.41
2022-08-30T00:54:34.310Z,23.41
2022-08-30T00:55:07.773Z,23.40
2022-08-30T00:55:44.262Z,23.41
2022-08-30T00:56:18.210Z,23.42
2022-08-30T00:56:53.518Z,23.40
2022-08-30T00:57:28.575Z,23.39
2022-08-30T00:58:05.831Z,23.36
2022-08-30T00:58:42.821Z,23.34
2022-08-30T00:59:18.176Z,23.34
2022-08-30T00:59:50.940Z,23.33
2022-08-30T01:00:23.646Z,23.34
2022-08-30T01:01:01.874Z,23.34
2022-08-30T01:01:36.219Z,23.31
2022-08-30T01:02:10.395Z,23.30
2022-08-30T01:02:45.528Z,23.29
2022-08-30T01:03:21.475Z,23.27
2022-08-30T01:03:54.519Z,23.27
2022-08-30T01:04:30.104Z,23.29
2022-08-30T01:05:04.170Z,23.24
2022-08-30T01:05:38.734Z,23.21
2022-08-30T01:06:15.701Z,23.19
2022-08-30T01:06:48.312Z,23.19
2022-08-30T01:07:20.474Z,23.20
2022-08-30T01:07:55.375Z,23.18
2022-08-30T01:08:27.548Z,23.18
2022-08-30T01:09:01.189Z,23.18
2022-08-30T01:09:36.095Z,23.18
2022-08-30T01:10:10.625Z,23.18
2022-08-30T01:10:44.066Z,23.17
2022-08-30T01:11:23.269Z,23.19
2022-08-30T01:11:58.178Z,23.18
2022-08-30T01:12:30.842Z,23.18
2022-08-30T01:13:05.810Z,23.17
2022-08-30T01:13:38.608Z,23.16
2022-08-30T01:14:14.505Z,23.14
2022-08-30T01:14:47.446Z,23.12
2022-08-30T01:15:21.274Z,23.12
2022-08-30T01:15:54.120Z,23.11
2022-08-30T01:16:32.996Z,23.10
2022-08-30T01:17:06.010Z,23.09
2022-08-30T01:17:38.966Z,23.11
2022-08-30T01:18:17.569Z,23.10
2022-08-30T01:18:52.331Z,23.09
2022-08-30T01:19:31.793Z,23.08
2022-08-30T01:20:09.925Z,23.05
2022-08-30T01:20:49.651Z,23.04
2022-08-30T01:21:28.218Z,23.03
2022-08-30T01:22:12.943Z,23.01
2022-08-30T01:22:59.959Z,22.98
2022-08-30T01:23:33.678Z,22.96
2022-08-30T01:24:11.579Z,22.96
2022-08-30T01:24:47.843Z,22.96
2022-08-30T01:25:23.709Z,22.96
2022-08-30T01:26:00.115Z,22.95
2022-08-30T01:26:34.938Z,22.95
2022-08-30T01:27:07.138Z,22.96
2022-08-30T01:27:46.152Z,23.00
2022-08-30T01:28:23.293Z,22.99
2022-08-30T01:29:01.875Z,22.98
2022-08-30T01:29:34.382Z,22.98
2022-08-30T01:30:08.971Z,22.98
2022-08-30T01:30:44.926Z,22.97
2022-08-30T01:31:17.309Z,22.96
2022-08-30T01:31:49.594Z,22.97
2022-08-30T01:32:29.458Z,22.97
2022-08-30T01:33:04.687Z,22.93
2022-08-30T01:33:38.325Z,22.93
2022-08-30T01:34:13.241Z,22.95
2022-08-30T01:34:45.662Z,22.97
2022-08-30T01:35:20.530Z,22.99
2022-08-30T01:35:57.741Z,23.00
2022-08-30T01:36:29.999Z,23.03
2022-08-30T01:37:02.415Z,22.99
2022-08-30T01:37:39.326Z,22.98
2022-08-30T01:38:15.071Z,22.96
2022-08-30T01:38:49.594Z,22.95
2022-08-30T01:39:24.891Z,22.96
2022-08-30T01:39:57.142Z,22.98
2022-08-30T01:40:29.494Z,22.98
2022-08-30T01:41:12.850Z,22.99
2022-08-30T01:41:45.751Z,22.98
2022-08-30T01:42:18.330Z,22.97
2022-08-30T01:42:53.112Z,22.99
2022-08-30T01:43:25.553Z,22.98
2022-08-30T01:43:59.652Z,22.99
2022-08-30T01:44:34.521Z,22.98
2022-08-30T01:45:08.769Z,22.97
2022-08-30T01:45:41.160Z,22.94
2022-08-30T01:46:18.001Z,22.95
2022-08-30T01:46:50.156Z,22.95
2022-08-30T01:47:23.142Z,22.95
2022-08-30T01:47:55.367Z,22.97
2022-08-30T01:48:30.194Z,22.97
2022-08-30T01:49:06.857Z,22.95
2022-08-30T01:49:42.619Z,22.94
2022-08-30T01:50:14.946Z,22.93
2022-08-30T01:50:48.403Z,22.94
2022-08-30T01:51:23.635Z,22.95
2022-08-30T01:52:00.908Z,22.94
2022-08-30T01:52:34.128Z,22.94
2022-08-30T01:53:09.204Z,22.96
2022-08-30T01:53:48.067Z,22.97
2022-08-30T01:54:20.265Z,22.97
2022-08-30T01:55:02.283Z,22.98
2022-08-30T01:55:34.943Z,22.98
2022-08-30T01:56:08.129Z,22.98
2022-08-30T01:56:42.900Z,22.98
2022-08-30T01:57:18.508Z,22.97
2022-08-30T01:57:50.720Z,22.98
2022-08-30T01:58:25.934Z,22.94
2022-08-30T01:59:02.542Z,22.94
2022-08-30T01:59:35.312Z,22.90
2022-08-30T02:00:12.867Z,22.89
2022-08-30T02:00:45.089Z,22.85
2022-08-30T02:01:20.130Z,22.85
2022-08-30T02:01:55.198Z,22.83
2022-08-30T02:02:29.628Z,22.81
2022-08-30T02:03:01.831Z,22.79
2022-08-30T02:03:37.430Z,22.76
2022-08-30T02:04:11.980Z,22.75
2022-08-30T02:04:44.823Z,22.73
2022-08-30T02:05:19.934Z,22.72
2022-08-30T02:05:52.354Z,22.70
2022-08-30T02:06:24.633Z,22.70
2022-08-30T02:06:59.537Z,22.70
2022-08-30T02:07:32.060Z,22.68
2022-08-30T02:08:04.902Z,22.69
2022-08-30T02:08:40.692Z,22.68
2022-08-30T02:09:15.565Z,22.68
2022-08-30T02:09:51.070Z,22.68
2022-08-30T02:10:23.943Z,22.67
2022-08-30T02:10:56.126Z,22.67
2022-08-30T02:11:31.061Z,22.68
2022-08-30T02:12:04.713Z,22.65
2022-08-30T02:12:36.878Z,22.63
2022-08-30T02:13:11.788Z,22.61
2022-08-30T02:13:45.692Z,22.60
2022-08-30T02:14:17.837Z,22.57
2022-08-30T02:14:56.134Z,22.55
2022-08-30T02:15:28.528Z,22.54
2022-08-30T02:16:00.681Z,22.54
2022-08-30T02:16:35.742Z,22.55
2022-08-30T02:17:09.631Z,22.55
2022-08-30T02:17:42.557Z,22.55
2022-08-30T02:18:17.275Z,22.54
2022-08-30T02:18:49.795Z,22.54
2022-08-30T02:19:21.938Z,22.54
2022-08-30T02:19:56.857Z,22.53
2022-08-30T02:20:29.205Z,22.52
2022-08-30T02:21:01.903Z,22.52
2022-08-30T02:21:37.225Z,22.52
2022-08-30T02:22:09.778Z,22.50
2022-08-30T02:22:47.582Z,22.49
2022-08-30T02:23:24.186Z,22.50
2022-08-30T02:23:56.471Z,22.49
2022-08-30T02:24:31.387Z,22.50
2022-08-30T02:25:07.375Z,22.47
2022-08-30T02:25:50.894Z,22.42
2022-08-30T02:26:23.656Z,22.39
2022-08-30T02:26:58.438Z,22.41
2022-08-30T02:27:30.664Z,22.40
2022-08-30T02:28:03.161Z,22.38
2022-08-30T02:28:35.866Z,22.37
2022-08-30T02:29:25.830Z,22.31
2022-08-30T02:29:58.013Z,22.30
2022-08-30T02:30:30.233Z,22.30
2022-08-30T02:31:05.083Z,22.30
2022-08-30T02:31:37.394Z,22.30
2022-08-30T02:32:09.609Z,22.31
2022-08-30T02:32:44.367Z,22.30
2022-08-30T02:33:16.759Z,22.31
2022-08-30T02:33:50.560Z,22.31
2022-08-30T02:34:25.346Z,22.31
2022-08-30T02:34:57.498Z,22.30
2022-08-30T02:35:29.831Z,22.32
2022-08-30T02:36:05.211Z,22.31
2022-08-30T02:36:39.599Z,22.31
2022-08-30T02:37:11.911Z,22.31
2022-08-30T02:37:46.714Z,22.29
2022-08-30T02:38:20.078Z,22.29
2022-08-30T02:38:52.728Z,22.30
2022-08-30T02:39:27.468Z,22.31
2022-08-30T02:40:02.282Z,22.31
2022-08-30T02:40:34.889Z,22.30
2022-08-30T02:41:13.879Z,22.27
2022-08-30T02:41:46.326Z,22.27
2022-08-30T02:42:21.124Z,22.24
2022-08-30T02:42:53.273Z,22.24
2022-08-30T02:43:25.989Z,22.26
2022-08-30T02:44:01.083Z,22.25
2022-08-30T02:44:33.298Z,22.24
2022-08-30T02:45:06.562Z,22.25
2022-08-30T02:45:41.412Z,22.24
2022-08-30T02:46:13.871Z,22.24
2022-08-30T02:46:46.114Z,22.23
2022-08-30T02:47:20.862Z,22.22
2022-08-30T02:47:53.362Z,22.23
2022-08-30T02:48:25.783Z,22.23
2022-08-30T02:49:12.983Z,22.22
2022-08-30T02:49:52.908Z,22.17
2022-08-30T02:50:29.683Z,22.18
2022-08-30T02:51:06.794Z,22.17
2022-08-30T02:51:41.790Z,22.15
2022-08-30T02:52:16.728Z,22.17
2022-08-30T02:52:49.137Z,22.16
2022-08-30T02:53:21.893Z,22.14
2022-08-30T02:53:57.510Z,22.13
2022-08-30T02:54:32.498Z,22.12
2022-08-30T02:55:08.519Z,22.12
2022-08-30T02:55:43.475Z,22.13
2022-08-30T02:56:16.491Z,22.12
2022-08-30T02:56:49.892Z,22.13
2022-08-30T02:57:24.745Z,22.15
2022-08-30T02:57:57.191Z,22.16
2022-08-30T02:58:29.463Z,22.18
2022-08-30T02:59:05.419Z,22.19
2022-08-30T02:59:41.809Z,22.19
2022-08-30T03:00:19.942Z,22.15
2022-08-30T03:00:52.632Z,22.15
2022-08-30T03:01:29.202Z,22.16
2022-08-30T03:02:04.246Z,22.13
2022-08-30T03:02:36.407Z,22.12
2022-08-30T03:03:09.126Z,22.10
2022-08-30T03:03:45.705Z,22.10
2022-08-30T03:04:17.947Z,22.09
2022-08-30T03:04:58.864Z,22.05
2022-08-30T03:05:34.427Z,22.05
2022-08-30T03:06:07.327Z,22.04
2022-08-30T03:06:39.662Z,22.03
2022-08-30T03:07:15.284Z,22.04
2022-08-30T03:07:47.735Z,22.05
2022-08-30T03:08:19.931Z,22.05
2022-08-30T03:08:54.701Z,22.06
2022-08-30T03:09:26.885Z,22.04
2022-08-30T03:09:59.081Z,22.04
2022-08-30T03:10:36.485Z,22.03
2022-08-30T03:11:10.527Z,22.01
2022-08-30T03:11:42.816Z,21.99
2022-08-30T03:12:17.600Z,21.96
2022-08-30T03:12:49.844Z,21.95
2022-08-30T03:13:21.982Z,21.93
2022-08-30T03:13:56.738Z,21.91
2022-08-30T03:14:29.148Z,21.92
2022-08-30T03:15:01.415Z,21.90
2022-08-30T03:15:36.527Z,21.87
2022-08-30T03:16:08.958Z,21.85
2022-08-30T03:16:41.162Z,21.84
2022-08-30T03:17:16.903Z,21.83
2022-08-30T03:17:49.023Z,21.81
2022-08-30T03:18:21.954Z,21.79
2022-08-30T03:18:56.709Z,21.78
2022-08-30T03:19:29.145Z,21.74
2022-08-30T03:20:02.287Z,21.71
2022-08-30T03:20:37.892Z,21.69
2022-08-30T03:21:11.922Z,21.67
2022-08-30T03:21:45.023Z,21.66
2022-08-30T03:22:20.288Z,21.65
2022-08-30T03:22:53.159Z,21.65
2022-08-30T03:23:25.398Z,21.64
2022-08-30T03:24:00.095Z,21.63
2022-08-30T03:24:32.451Z,21.62
2022-08-30T03:25:06.174Z,21.63
2022-08-30T03:25:43.738Z,21.62
2022-08-30T03:26:16.204Z,21.60
2022-08-30T03:26:51.030Z,21.60
2022-08-30T03:27:23.687Z,21.60
2022-08-30T03:27:55.984Z,21.59
2022-08-30T03:28:30.869Z,21.59
2022-08-30T03:29:03.717Z,21.60
2022-08-30T03:29:36.269Z,21.58
2022-08-30T03:30:13.207Z,21.60
2022-08-30T03:30:45.605Z,21.58
2022-08-30T03:31:17.853Z,21.59
2022-08-30T03:31:53.900Z,21.60
2022-08-30T03:32:26.520Z,21.58
2022-08-30T03:32:59.026Z,21.64
2022-08-30T03:33:34.405Z,21.58
2022-08-30T03:34:06.665Z,21.59
2022-08-30T03:34:38.848Z,21.60
2022-08-30T03:35:14.166Z,21.60
2022-08-30T03:35:46.363Z,21.60
2022-08-30T03:36:21.490Z,21.59
2022-08-30T03:36:55.437Z,21.55
2022-08-30T03:37:27.847Z,21.54
2022-08-30T03:38:02.678Z,21.54
2022-08-30T03:38:34.859Z,21.48
2022-08-30T03:39:08.106Z,21.47
2022-08-30T03:39:47.519Z,21.44
2022-08-30T03:40:22.393Z,21.43
2022-08-30T03:40:58.501Z,21.42
2022-08-30T03:41:33.242Z,21.40
2022-08-30T03:42:05.809Z,21.42
2022-08-30T03:42:38.210Z,21.41
2022-08-30T03:43:14.933Z,21.41
2022-08-30T03:43:47.536Z,21.40
2022-08-30T03:44:20.490Z,21.39
2022-08-30T03:44:53.804Z,21.40
2022-08-30T03:45:28.762Z,21.37
2022-08-30T03:46:01.445Z,21.38
2022-08-30T03:46:37.188Z,21.36
2022-08-30T03:47:12.398Z,21.33
2022-08-30T03:47:45.397Z,21.30
2022-08-30T03:48:17.978Z,21.30
2022-08-30T03:48:52.792Z,21.28
2022-08-30T03:49:25.107Z,21.27
2022-08-30T03:49:57.962Z,21.26
2022-08-30T03:50:33.401Z,21.25
2022-08-30T03:51:06.034Z,21.24
2022-08-30T03:51:38.394Z,21.23
2022-08-30T03:52:13.255Z,21.23
2022-08-30T03:52:45.903Z,21.22
2022-08-30T03:53:18.267Z,21.19
2022-08-30T03:53:50.618Z,21.18
2022-08-30T03:54:25.407Z,21.17
2022-08-30T03:54:57.995Z,21.16
2022-08-30T03:55:30.926Z,21.17
2022-08-30T03:56:08.786Z,21.18
2022-08-30T03:56:41.425Z,21.17
2022-08-30T03:57:19.746Z,21.17
2022-08-30T03:57:55.238Z,21.15
2022-08-30T03:58:28.994Z,21.13
2022-08-30T03:59:01.114Z,21.13
2022-08-30T03:59:36.039Z,21.14
2022-08-30T04:00:11.075Z,21.15
2022-08-30T04:00:46.446Z,21.14
2022-08-30T04:01:21.434Z,21.14
2022-08-30T04:01:54.171Z,21.14
2022-08-30T04:02:27.015Z,21.14
2022-08-30T04:03:01.922Z,21.16
2022-08-30T04:03:34.477Z,21.15
2022-08-30T04:04:06.603Z,21.17
2022-08-30T04:04:38.804Z,21.18
2022-08-30T04:05:14.800Z,21.18
2022-08-30T04:05:50.790Z,21.14
2022-08-30T04:06:23.128Z,21.17
2022-08-30T04:06:57.931Z,21.16
2022-08-30T04:07:30.079Z,21.15
2022-08-30T04:08:02.409Z,21.14
2022-08-30T04:08:38.355Z,21.15
2022-08-30T04:09:10.734Z,21.13
2022-08-30T04:09:42.905Z,21.08
2022-08-30T04:10:17.763Z,21.06
2022-08-30T04:10:50.911Z,21.05
2022-08-30T04:11:25.783Z,21.07
2022-08-30T04:12:00.583Z,21.06
2022-08-30T04:12:32.757Z,21.09
2022-08-30T04:13:05.806Z,21.06
2022-08-30T04:13:40.606Z,21.06
2022-08-30T04:14:12.849Z,21.07
2022-08-30T04:14:45.045Z,21.05
2022-08-30T04:15:21.010Z,21.02
2022-08-30T04:15:53.179Z,21.02
2022-08-30T04:16:26.510Z,21.02
2022-08-30T04:17:01.400Z,21.02
2022-08-30T04:17:33.563Z,20.99
2022-08-30T04:18:06.465Z,20.98
2022-08-30T04:18:41.726Z,20.96
2022-08-30T04:19:13.935Z,20.95
2022-08-30T04:19:47.238Z,20.95
2022-08-30T04:20:22.179Z,20.98
2022-08-30T04:20:55.143Z,20.96
2022-08-30T04:21:27.335Z,20.99
2022-08-30T04:22:02.287Z,20.99
2022-08-30T04:22:34.504Z,20.99
2022-08-30T04:23:07.293Z,21.00
2022-08-30T04:23:42.066Z,20.99
2022-08-30T04:24:14.349Z,21.02
2022-08-30T04:24:46.592Z,21.02
2022-08-30T04:25:21.699Z,21.04
2022-08-30T04:25:53.818Z,21.05
2022-08-30T04:26:29.338Z,21.06
2022-08-30T04:27:04.864Z,21.02
2022-08-30T04:27:37.727Z,21.05
2022-08-30T04:28:10.645Z,21.05
2022-08-30T04:28:45.470Z,21.05
2022-08-30T04:29:18.862Z,21.05
2022-08-30T04:29:51.067Z,21.02
2022-08-30T04:30:25.778Z,20.98
2022-08-30T04:30:57.963Z,20.97
2022-08-30T04:31:31.480Z,20.97
2022-08-30T04:32:07.084Z,20.98
2022-08-30T04:32:39.532Z,20.94
2022-08-30T04:33:13.388Z,20.93
2022-08-30T04:33:48.267Z,20.90
2022-08-30T04:34:20.486Z,20.91
2022-08-30T04:34:56.787Z,20.93
2022-08-30T04:35:31.646Z,20.93
2022-08-30T04:36:05.901Z,20.93
2022-08-30T04:36:38.670Z,20.94
2022-08-30T04:37:13.526Z,20.92
2022-08-30T04:37:46.039Z,20.92
2022-08-30T04:38:18.507Z,20.88
2022-08-30T04:38:57.125Z,20.87
2022-08-30T04:39:29.531Z,20.87
2022-08-30T04:40:01.878Z,20.91
2022-08-30T04:40:36.760Z,20.89
2022-08-30T04:41:15.133Z,20.86
2022-08-30T04:41:49.982Z,20.87
2022-08-30T04:42:24.778Z,20.88
2022-08-30T04:42:57.120Z,20.87
2022-08-30T04:43:30.612Z,20.90
2022-08-30T04:44:06.540Z,20.91
2022-08-30T04:44:41.395Z,20.91
2022-08-30T04:45:15.817Z,20.95
2022-08-30T04:45:52.445Z,20.98
2022-08-30T04:46:24.917Z,21.00
2022-08-30T04:46:58.124Z,21.00
2022-08-30T04:47:32.851Z,21.04
2022-08-30T04:48:05.178Z,21.06
2022-08-30T04:48:38.184Z,21.09
2022-08-30T04:49:12.894Z,21.11
2022-08-30T04:49:45.057Z,21.10
2022-08-30T04:50:20.030Z,21.12
2022-08-30T04:50:54.865Z,21.13
2022-08-30T04:51:27.045Z,21.14
2022-08-30T04:51:59.371Z,21.16
2022-08-30T04:52:34.200Z,21.19
2022-08-30T04:53:06.454Z,21.18
2022-08-30T04:53:38.599Z,21.19
2022-08-30T04:54:13.796Z,21.22
2022-08-30T04:54:46.016Z,21.25
2022-08-30T04:55:20.399Z,21.27
2022-08-30T04:55:55.316Z,21.30
2022-08-30T04:56:28.530Z,21.30
2022-08-30T04:57:03.680Z,21.31
2022-08-30T04:57:38.547Z,21.29
2022-08-30T04:58:11.219Z,21.26
2022-08-30T04:58:44.161Z,21.29
2022-08-30T04:59:19.101Z,21.28
2022-08-30T04:59:51.399Z,21.27
2022-08-30T05:00:23.970Z,21.31
2022-08-30T05:00:56.233Z,21.33
2022-08-30T05:01:44.633Z,21.36
2022-08-30T05:02:17.874Z,21.36
2022-08-30T05:02:50.536Z,21.38
2022-08-30T05:03:25.542Z,21.41
2022-08-30T05:03:58.734Z,21.43
2022-08-30T05:04:30.910Z,21.44
2022-08-30T05:05:19.053Z,21.46
2022-08-30T05:05:54.307Z,21.42
2022-08-30T05:06:31.181Z,21.42
2022-08-30T05:07:03.394Z,21.42
2022-08-30T05:07:38.404Z,21.42
2022-08-30T05:08:12.902Z,21.44
2022-08-30T05:08:48.507Z,21.46
2022-08-30T05:09:21.730Z,21.47
2022-08-30T05:09:53.987Z,21.51
2022-08-30T05:10:29.788Z,21.53
2022-08-30T05:11:04.846Z,21.55
2022-08-30T05:11:39.791Z,21.58
2022-08-30T05:12:14.546Z,21.61
2022-08-30T05:12:46.820Z,21.63
2022-08-30T05:13:25.968Z,21.63
2022-08-30T05:14:07.967Z,21.61
2022-08-30T05:14:42.837Z,21.64
2022-08-30T05:15:17.977Z,21.64
2022-08-30T05:15:50.274Z,21.64
2022-08-30T05:16:25.140Z,21.65
2022-08-30T05:16:57.402Z,21.67
2022-08-30T05:17:29.596Z,21.68
2022-08-30T05:18:04.620Z,21.68
2022-08-30T05:18:37.545Z,21.69
2022-08-30T05:19:09.792Z,21.68
2022-08-30T05:19:44.796Z,21.70
2022-08-30T05:20:17.341Z,21.71
2022-08-30T05:20:49.527Z,21.73
2022-08-30T05:21:26.686Z,21.73
2022-08-30T05:21:58.847Z,21.72
2022-08-30T05:22:31.122Z,21.72
2022-08-30T05:23:06.903Z,21.74
2022-08-30T05:23:40.124Z,21.74
2022-08-30T05:24:12.409Z,21.75
2022-08-30T05:24:47.166Z,21.78
2022-08-30T05:25:20.783Z,21.80
2022-08-30T05:25:55.543Z,21.83
2022-08-30T05:26:33.114Z,21.86
2022-08-30T05:27:08.347Z,21.87
2022-08-30T05:27:43.109Z,21.88
2022-08-30T05:28:15.448Z,21.88
2022-08-30T05:28:50.598Z,21.89
2022-08-30T05:29:23.145Z,21.89
2022-08-30T05:29:56.224Z,21.89
2022-08-30T05:30:34.445Z,21.87
2022-08-30T05:31:14.744Z,21.85
2022-08-30T05:31:49.281Z,21.77
2022-08-30T05:32:21.571Z,21.79
2022-08-30T05:32:55.684Z,21.82
2022-08-30T05:33:30.553Z,21.85
2022-08-30T05:34:08.442Z,21.85
2022-08-30T05:34:40.579Z,21.88
2022-08-30T05:35:17.245Z,21.92
2022-08-30T05:35:49.421Z,21.91
2022-08-30T05:36:26.832Z,21.91
2022-08-30T05:36:59.606Z,21.91
2022-08-30T05:37:34.409Z,21.86
2022-08-30T05:38:09.369Z,21.86
2022-08-30T05:38:43.047Z,21.84
2022-08-30T05:39:18.864Z,21.84
2022-08-30T05:39:54.197Z,21.81
2022-08-30T05:40:26.521Z,21.79
2022-08-30T05:41:08.259Z,21.79
2022-08-30T05:41:43.175Z,21.79
2022-08-30T05:42:18.618Z,21.79
2022-08-30T05:42:53.401Z,21.80
2022-08-30T05:43:26.925Z,21.81
2022-08-30T05:44:07.017Z,21.82
2022-08-30T05:44:39.234Z,21.83
2022-08-30T05:45:19.596Z,21.83
2022-08-30T05:45:59.114Z,21.84
2022-08-30T05:46:35.615Z,21.85
2022-08-30T05:47:07.827Z,21.87
2022-08-30T05:47:40.426Z,21.86
2022-08-30T05:48:15.331Z,21.87
2022-08-30T05:48:48.071Z,21.88
2022-08-30T05:49:22.937Z,21.88
2022-08-30T05:49:55.078Z,21.88
2022-08-30T05:50:27.245Z,21.89
2022-08-30T05:51:09.057Z,21.91
2022-08-30T05:51:43.292Z,21.88
2022-08-30T05:52:18.348Z,21.89
2022-08-30T05:52:53.217Z,21.88
2022-08-30T05:53:25.641Z,21.91
2022-08-30T05:53:59.345Z,21.91
2022-08-30T05:54:34.161Z,21.89
2022-08-30T05:55:08.207Z,21.87
2022-08-30T05:55:41.552Z,21.89
2022-08-30T05:56:20.595Z,21.90
2022-08-30T05:56:52.773Z,21.90
2022-08-30T05:57:25.637Z,21.89
2022-08-30T05:58:03.517Z,21.92
2022-08-30T05:58:35.958Z,21.93
2022-08-30T05:59:09.208Z,21.95
2022-08-30T05:59:44.109Z,21.97
2022-08-30T06:00:19.080Z,21.98
2022-08-30T06:00:51.230Z,22.00
2022-08-30T06:01:28.592Z,22.01
2022-08-30T06:02:00.967Z,22.02
2022-08-30T06:02:33.451Z,22.05
2022-08-30T06:03:08.507Z,22.07
2022-08-30T06:03:40.840Z,22.07
2022-08-30T06:04:13.666Z,22.10
2022-08-30T06:04:49.451Z,22.12
2022-08-30T06:05:21.975Z,22.14
2022-08-30T06:05:55.279Z,22.15
2022-08-30T06:06:30.597Z,22.15
2022-08-30T06:07:03.339Z,22.16
2022-08-30T06:07:38.551Z,22.17
2022-08-30T06:08:10.826Z,22.18
2022-08-30T06:08:49.253Z,22.18
2022-08-30T06:09:21.754Z,22.19
2022-08-30T06:09:54.138Z,22.19
2022-08-30T06:10:28.898Z,22.19
2022-08-30T06:11:01.148Z,22.20
2022-08-30T06:11:34.507Z,22.21
2022-08-30T06:12:09.893Z,22.24
2022-08-30T06:12:42.088Z,22.21
2022-08-30T06:13:19.473Z,22.20
2022-08-30T06:13:53.035Z,22.17
2022-08-30T06:14:25.308Z,22.17
2022-08-30T06:15:00.213Z,22.18
2022-08-30T06:15:32.397Z,22.18
2022-08-30T06:16:04.812Z,22.20
2022-08-30T06:16:41.589Z,22.22
2022-08-30T06:17:13.854Z,22.22
2022-08-30T06:17:45.974Z,22.23
2022-08-30T06:18:21.622Z,22.24
2022-08-30T06:19:01.774Z,22.20
2022-08-30T06:19:36.557Z,22.20
2022-08-30T06:20:10.655Z,22.18
2022-08-30T06:20:44.494Z,22.17
2022-08-30T06:21:20.371Z,22.18
2022-08-30T06:21:52.593Z,22.19
2022-08-30T06:22:27.317Z,22.22
2022-08-30T06:22:59.439Z,22.23
2022-08-30T06:23:31.939Z,22.27
2022-08-30T06:24:09.048Z,22.30
2022-08-30T06:24:57.070Z,22.33
2022-08-30T06:25:42.147Z,22.36
2022-08-30T06:26:14.941Z,22.35
2022-08-30T06:26:50.443Z,22.40
2022-08-30T06:27:22.628Z,22.42
2022-08-30T06:27:57.422Z,22.42
2022-08-30T06:28:32.427Z,22.43
2022-08-30T06:29:07.322Z,22.44
2022-08-30T06:29:40.264Z,22.45
2022-08-30T06:30:13.039Z,22.46
2022-08-30T06:30:47.763Z,22.47
2022-08-30T06:31:22.200Z,22.48
2022-08-30T06:31:54.925Z,22.49
2022-08-30T06:32:29.778Z,22.48
2022-08-30T06:33:02.261Z,22.47
2022-08-30T06:33:34.639Z,22.48
2022-08-30T06:34:09.926Z,22.50
2022-08-30T06:34:42.130Z,22.50
2022-08-30T06:35:14.456Z,22.51
2022-08-30T06:35:58.238Z,22.52
2022-08-30T06:36:32.301Z,22.53
2022-08-30T06:37:04.717Z,22.51
2022-08-30T06:37:39.659Z,22.54
2022-08-30T06:38:11.837Z,22.55
2022-08-30T06:38:45.410Z,22.55
2022-08-30T06:39:20.177Z,22.57
2022-08-30T06:39:52.347Z,22.59
2022-08-30T06:40:25.056Z,22.58
2022-08-30T06:40:59.971Z,22.60
2022-08-30T06:41:34.401Z,22.62
2022-08-30T06:42:06.721Z,22.62
2022-08-30T06:42:41.798Z,22.61
2022-08-30T06:43:13.996Z,22.60
2022-08-30T06:43:49.433Z,22.61
2022-08-30T06:44:24.223Z,22.62
2022-08-30T06:44:56.662Z,22.64
2022-08-30T06:45:31.096Z,22.65
2022-08-30T06:46:08.711Z,22.65
2022-08-30T06:46:40.973Z,22.65
2022-08-30T06:47:15.824Z,22.65
2022-08-30T06:47:48.865Z,22.64
2022-08-30T06:48:21.026Z,22.63
2022-08-30T06:48:56.346Z,22.63
2022-08-30T06:49:28.642Z,22.62
2022-08-30T06:50:00.810Z,22.62
2022-08-30T06:50:35.911Z,22.62
2022-08-30T06:51:09.236Z,22.63
2022-08-30T06:51:44.139Z,22.60
2022-08-30T06:52:16.449Z,22.60
2022-08-30T06:52:54.010Z,22.60
2022-08-30T06:53:26.858Z,22.60
2022-08-30T06:53:59.825Z,22.61
2022-08-30T06:54:34.651Z,22.64
2022-08-30T06:55:07.729Z,22.64
2022-08-30T06:55:40.146Z,22.64
2022-08-30T06:56:16.763Z,22.66
2022-08-30T06:56:58.321Z,22.67
2022-08-30T06:57:33.562Z,22.65
2022-08-30T06:58:05.995Z,22.64
2022-08-30T06:58:42.404Z,22.65
2022-08-30T06:59:17.332Z,22.66
2022-08-30T06:59:56.654Z,22.67
2022-08-30T07:00:29.431Z,22.67
2022-08-30T07:01:04.199Z,22.70
2022-08-30T07:01:36.441Z,22.72
2022-08-30T07:02:11.613Z,22.77
2022-08-30T07:02:44.139Z,22.77
2022-08-30T07:03:16.587Z,22.80
2022-08-30T07:03:51.914Z,22.84
2022-08-30T07:04:24.495Z,22.84
2022-08-30T07:04:56.754Z,22.85
2022-08-30T07:05:31.623Z,22.86
2022-08-30T07:06:04.662Z,22.86
2022-08-30T07:06:36.855Z,22.88
2022-08-30T07:07:13.456Z,22.95
2022-08-30T07:07:45.696Z,22.90
2022-08-30T07:08:18.569Z,22.89
2022-08-30T07:08:56.067Z,22.89
2022-08-30T07:09:28.967Z,22.88
2022-08-30T07:10:05.960Z,22.89
2022-08-30T07:10:38.681Z,22.89
2022-08-30T07:11:11.506Z,22.88
2022-08-30T07:11:46.481Z,22.90
2022-08-30T07:12:18.868Z,22.90
2022-08-30T07:12:53.607Z,22.91
2022-08-30T07:13:28.347Z,22.92
2022-08-30T07:14:01.577Z,22.92
2022-08-30T07:14:38.978Z,22.95
2022-08-30T07:15:12.366Z,22.96
2022-08-30T07:15:48.391Z,22.97
2022-08-30T07:16:21.159Z,22.96
2022-08-30T07:16:53.340Z,23.03
2022-08-30T07:17:40.615Z,23.04
2022-08-30T07:18:28.416Z,23.02
2022-08-30T07:19:03.533Z,23.00
2022-08-30T07:19:35.673Z,23.00
2022-08-30T07:20:09.107Z,23.01
2022-08-30T07:20:41.346Z,23.01
2022-08-30T07:21:19.089Z,23.03
2022-08-30T07:21:51.306Z,23.02
2022-08-30T07:22:26.032Z,23.04
2022-08-30T07:22:58.273Z,23.06